Decoded Metar for KHWD (HAYWARD in CA, USA) (IATA:HWD) | Meteo·Mobile Aviation Weather
aviador You're here:

KHWD Decoded Metar

HAYWARD in CA, USA
Report Time2018-09-20 13:54:00
UTC Time2018-09-20 14:41:35
Flight Rules vfr VFR
Wind060° at 04 kt
W.Decomp.*RWY 10: 2.3 kt HW 3.3 kt LCW
W.Rank060° ranks 8
Current wind is below 060° avg. (4.3)
Visibility9999 m
Phenomena:N/A
Clouds:N/A
Expected CloudBase > 2,800 ft AGL from Temp-Dew spread
CeilingNone
Temp14°C (ISA -1)
Dew Point07°C (63% RH)
AAT11.9°C
QNH1011 hPa
Density Alt171 ft
Elevation69 ft
Report Wrong Elevation
Raw Report
KHWD 201354Z AUTO 06004KT 10SM CLR 14/07 A2985 RMK AO2 SLP117
T01390072=

Extra information for KHWD:More info

Metar Taf Metar & Taf Last 4 Metars F.Rules Stats Wind Profile Meteogram Temp Stats Airport Information Weather charts Add Link Nearby VenuesMetar ALERT Operation Metar Decoded Social comments

AIRNAV info for KHWD